createdAt,value
2019-05-17T00:01:07.391Z,40.43
2019-05-17T00:06:11.778Z,39.50
2019-05-17T00:11:16.847Z,37.73
2019-05-17T00:16:21.259Z,42.37
2019-05-17T00:21:27.547Z,44.63
2019-05-17T00:26:31.522Z,47.80
2019-05-17T00:31:36.995Z,43.43
2019-05-17T00:36:41.371Z,44.37
2019-05-17T00:41:47.130Z,43.15
2019-05-17T00:46:51.439Z,45.75
2019-05-17T00:51:56.729Z,63.00
2019-05-17T00:57:01.097Z,93.60
2019-05-17T01:02:06.958Z,59.63
2019-05-17T01:07:11.486Z,62.30
2019-05-17T01:12:16.435Z,65.53
2019-05-17T01:17:20.766Z,71.87
2019-05-17T01:22:26.257Z,75.83
2019-05-17T01:27:30.531Z,52.07
2019-05-17T01:32:37.194Z,83.80
2019-05-17T01:37:40.720Z,80.87
2019-05-17T01:42:46.595Z,46.60
2019-05-17T01:47:51.085Z,35.53
2019-05-17T01:52:56.646Z,43.67
2019-05-17T01:58:00.981Z,20.33
2019-05-17T02:03:07.038Z,46.87
2019-05-17T02:08:11.314Z,37.07
2019-05-17T02:13:16.435Z,14.70
2019-05-17T02:18:20.864Z,23.03
2019-05-17T02:23:27.091Z,14.47
2019-05-17T02:28:32.169Z,16.27
2019-05-17T02:33:36.671Z,28.37
2019-05-17T02:38:43.598Z,20.83
2019-05-17T02:43:46.899Z,34.27
2019-05-17T02:48:53.863Z,13.83
2019-05-17T02:53:57.142Z,19.13
2019-05-17T02:59:03.632Z,14.00
2019-05-17T03:04:07.550Z,38.53
2019-05-17T03:09:12.547Z,14.30
2019-05-17T03:14:16.900Z,12.40
2019-05-17T03:19:23.570Z,17.53
2019-05-17T03:24:27.091Z,19.17
2019-05-17T03:29:33.522Z,17.80
2019-05-17T03:34:37.899Z,9.47
2019-05-17T03:39:42.751Z,11.33
2019-05-17T03:44:47.084Z,11.43
2019-05-17T03:49:53.091Z,9.73
2019-05-17T03:54:57.557Z,38.10
2019-05-17T04:00:03.790Z,13.07
2019-05-17T04:05:08.052Z,15.13
2019-05-17T04:10:15.167Z,38.63
2019-05-17T04:15:18.659Z,17.00
2019-05-17T04:20:22.886Z,14.30
2019-05-17T04:25:27.118Z,20.57
2019-05-17T04:30:32.620Z,26.13
2019-05-17T04:35:37.363Z,17.30
2019-05-17T04:40:43.129Z,17.67
2019-05-17T04:45:47.628Z,18.13
2019-05-17T04:50:53.685Z,21.63
2019-05-17T04:55:57.824Z,20.67
2019-05-17T05:01:04.152Z,17.13
2019-05-17T05:06:08.040Z,16.60
2019-05-17T05:11:12.843Z,21.13
2019-05-17T05:16:17.316Z,16.83
2019-05-17T05:21:23.063Z,23.07
2019-05-17T05:26:27.636Z,20.87
2019-05-17T05:31:32.267Z,25.07
2019-05-17T05:36:36.590Z,25.63
2019-05-17T05:41:42.703Z,29.57
2019-05-17T05:46:46.853Z,28.03
2019-05-17T05:51:52.308Z,30.03
2019-05-17T05:56:56.786Z,28.35
2019-05-17T06:02:01.788Z,30.15
2019-05-17T06:07:06.141Z,32.58
2019-05-17T06:12:23.434Z,32.35
2019-05-17T06:17:16.354Z,28.55
2019-05-17T06:22:22.406Z,28.95
2019-05-17T06:27:26.791Z,27.30
2019-05-17T06:32:31.660Z,30.80
2019-05-17T06:37:36.041Z,32.48
2019-05-17T06:42:44.110Z,35.70
2019-05-17T06:47:46.266Z,30.90
2019-05-17T06:52:53.114Z,25.52
2019-05-17T06:57:56.476Z,32.48
2019-05-17T07:03:00.886Z,27.10
2019-05-17T07:08:05.312Z,33.38
2019-05-17T07:13:10.655Z,28.35
2019-05-17T07:18:15.189Z,27.48
2019-05-17T07:23:19.859Z,29.18
2019-05-17T07:28:24.110Z,32.33
2019-05-17T07:33:30.478Z,35.50
2019-05-17T07:38:34.322Z,27.60
2019-05-17T07:43:40.515Z,29.48
2019-05-17T07:48:44.529Z,27.15
2019-05-17T07:53:49.494Z,29.00
2019-05-17T07:58:53.890Z,29.40
2019-05-17T08:04:00.401Z,28.83
2019-05-17T08:09:05.681Z,21.82
2019-05-17T08:14:10.553Z,27.93
2019-05-17T08:19:14.944Z,27.10
2019-05-17T08:24:19.670Z,22.45
2019-05-17T08:29:24.018Z,21.95
2019-05-17T08:34:29.288Z,20.23
2019-05-17T08:39:33.724Z,20.45
2019-05-17T08:44:39.398Z,23.22
2019-05-17T08:49:43.812Z,21.65
2019-05-17T08:54:49.563Z,19.32
2019-05-17T08:59:53.971Z,19.32
2019-05-17T09:05:00.279Z,19.70
2019-05-17T09:10:04.552Z,19.85
2019-05-17T09:15:09.997Z,17.17
2019-05-17T09:20:14.672Z,24.72
2019-05-17T09:25:21.783Z,20.82
2019-05-17T09:30:25.767Z,16.93
2019-05-17T09:35:30.206Z,32.20
2019-05-17T09:40:34.516Z,15.95
2019-05-17T09:45:40.452Z,16.30
2019-05-17T09:50:45.076Z,15.70
2019-05-17T09:55:49.787Z,17.27
2019-05-17T10:00:54.401Z,15.50
2019-05-17T10:06:00.006Z,13.40
2019-05-17T10:11:08.758Z,15.00
2019-05-17T10:16:10.570Z,19.90
2019-05-17T10:21:14.829Z,14.70
2019-05-17T10:26:19.835Z,21.95
2019-05-17T10:31:24.225Z,12.55
2019-05-17T10:36:29.363Z,15.83
2019-05-17T10:41:33.731Z,15.10
2019-05-17T10:46:40.478Z,13.15
2019-05-17T10:51:44.124Z,11.20
2019-05-17T10:56:50.220Z,15.05
2019-05-17T11:01:54.363Z,13.53
2019-05-17T11:06:59.584Z,13.50
2019-05-17T11:12:04.054Z,15.38
2019-05-17T11:17:08.248Z,10.03
2019-05-17T11:22:12.613Z,12.35
2019-05-17T11:27:16.845Z,16.32
2019-05-17T11:32:21.081Z,9.45
2019-05-17T11:37:25.320Z,13.58
2019-05-17T11:42:29.991Z,14.73
2019-05-17T11:47:34.253Z,11.57
2019-05-17T11:52:38.506Z,9.70
2019-05-17T11:57:42.758Z,11.83
2019-05-17T12:02:47.003Z,15.23
2019-05-17T12:07:51.270Z,10.85
2019-05-17T12:12:55.500Z,11.40
2019-05-17T12:17:59.730Z,9.68
2019-05-17T12:23:03.998Z,12.05
2019-05-17T12:28:09.145Z,9.88
2019-05-17T12:33:13.370Z,9.85
2019-05-17T12:38:17.630Z,11.10
2019-05-17T12:43:21.893Z,11.65
2019-05-17T12:48:26.135Z,12.37
2019-05-17T12:53:30.446Z,10.82
2019-05-17T12:58:34.780Z,13.40
2019-05-17T13:03:39.000Z,10.32
2019-05-17T13:08:43.253Z,10.30
2019-05-17T13:13:47.512Z,11.78
2019-05-17T13:18:51.772Z,10.68
2019-05-17T13:23:56.002Z,10.25
2019-05-17T13:29:00.247Z,9.13
2019-05-17T13:34:04.612Z,10.95
2019-05-17T13:39:08.982Z,8.58
2019-05-17T13:44:13.213Z,9.58
2019-05-17T13:49:17.451Z,12.18
2019-05-17T13:54:21.702Z,7.97
2019-05-17T13:59:25.921Z,10.58
2019-05-17T14:04:30.162Z,11.08
2019-05-17T14:09:34.435Z,8.00
2019-05-17T14:14:38.625Z,8.63
2019-05-17T14:19:42.871Z,7.83
2019-05-17T14:24:47.094Z,8.50
2019-05-17T14:29:51.339Z,8.43
2019-05-17T14:34:55.598Z,10.58
2019-05-17T14:39:59.835Z,9.58
2019-05-17T14:45:04.416Z,7.35
2019-05-17T14:50:09.669Z,7.10
2019-05-17T14:55:13.915Z,7.35
2019-05-17T15:00:18.395Z,6.62
2019-05-17T15:05:23.642Z,7.50
2019-05-17T15:10:27.917Z,7.05
2019-05-17T15:15:32.161Z,7.80
2019-05-17T15:20:36.424Z,8.48
2019-05-17T15:25:40.696Z,6.65
2019-05-17T15:30:45.036Z,7.83
2019-05-17T15:35:49.345Z,7.47
2019-05-17T15:40:53.592Z,7.30
2019-05-17T15:45:57.907Z,6.12
2019-05-17T15:51:02.177Z,7.85
2019-05-17T15:56:07.734Z,6.08
2019-05-17T16:01:12.003Z,8.50
2019-05-17T16:06:16.386Z,7.15
2019-05-17T16:11:20.669Z,8.18
2019-05-17T16:16:25.730Z,8.68
2019-05-17T16:21:29.955Z,7.15
2019-05-17T16:26:34.196Z,9.65
2019-05-17T16:31:38.447Z,7.25
2019-05-17T16:36:42.703Z,11.50
2019-05-17T16:41:46.955Z,7.80
2019-05-17T16:46:51.187Z,7.35
2019-05-17T16:51:55.500Z,10.58
2019-05-17T16:56:59.757Z,8.30
2019-05-17T17:02:04.100Z,8.20
2019-05-17T17:07:08.378Z,6.70
2019-05-17T17:12:12.659Z,8.78
2019-05-17T17:17:16.909Z,7.10
2019-05-17T17:22:21.275Z,7.67
2019-05-17T17:27:25.517Z,9.65
2019-05-17T17:32:29.773Z,8.53
2019-05-17T17:37:34.023Z,8.33
2019-05-17T17:42:38.516Z,10.20
2019-05-17T17:47:42.872Z,26.77
2019-05-17T17:52:50.300Z,31.62
2019-05-17T17:57:54.725Z,17.90
2019-05-17T18:02:58.930Z,13.65
2019-05-17T18:08:03.229Z,16.20
2019-05-17T18:13:07.553Z,12.82
2019-05-17T18:18:11.808Z,12.80
2019-05-17T18:23:20.879Z,12.10
2019-05-17T18:28:22.019Z,11.03
2019-05-17T18:33:26.469Z,9.48
2019-05-17T18:38:33.124Z,10.98
2019-05-17T18:43:37.463Z,12.55
2019-05-17T18:48:41.724Z,10.63
2019-05-17T18:53:45.985Z,11.57
2019-05-17T18:58:51.157Z,11.97
2019-05-17T19:03:55.406Z,12.58
2019-05-17T19:08:59.677Z,13.70
2019-05-17T19:14:03.947Z,14.83
2019-05-17T19:19:09.247Z,14.28
2019-05-17T19:24:13.521Z,15.50
2019-05-17T19:29:17.796Z,17.12
2019-05-17T19:34:22.051Z,14.00
2019-05-17T19:39:26.321Z,18.23
2019-05-17T19:44:30.573Z,17.12
2019-05-17T19:49:34.870Z,14.83
2019-05-17T19:54:39.121Z,16.65
2019-05-17T19:59:43.488Z,17.45
2019-05-17T20:04:47.749Z,19.42
2019-05-17T20:09:52.037Z,20.10
2019-05-17T20:14:56.318Z,18.77
2019-05-17T20:20:00.573Z,22.93
2019-05-17T20:25:06.011Z,21.93
2019-05-17T20:30:11.323Z,19.55
2019-05-17T20:35:18.082Z,20.17
2019-05-17T20:40:22.641Z,18.50
2019-05-17T20:45:33.029Z,19.15
2019-05-17T20:50:32.844Z,17.20
2019-05-17T20:55:37.173Z,24.12
2019-05-17T21:00:41.398Z,18.73
2019-05-17T21:05:45.700Z,19.73
2019-05-17T21:10:49.984Z,20.15
2019-05-17T21:15:54.228Z,21.10
2019-05-17T21:20:58.493Z,17.87
2019-05-17T21:26:02.740Z,19.10
2019-05-17T21:31:08.101Z,19.57
2019-05-17T21:36:12.551Z,18.80
2019-05-17T21:41:16.835Z,19.27
2019-05-17T21:46:21.095Z,19.02
2019-05-17T21:51:25.339Z,18.55
2019-05-17T21:56:29.603Z,20.08
2019-05-17T22:01:34.746Z,21.50
2019-05-17T22:06:39.011Z,19.40
2019-05-17T22:11:44.920Z,20.92
2019-05-17T22:16:49.176Z,20.50
2019-05-17T22:21:53.423Z,20.43
2019-05-17T22:26:57.669Z,20.62
2019-05-17T22:32:01.906Z,20.35
2019-05-17T22:37:06.168Z,23.95
2019-05-17T22:42:10.414Z,22.50
2019-05-17T22:47:14.699Z,24.47
2019-05-17T22:52:18.962Z,28.15
2019-05-17T22:57:23.254Z,26.17
2019-05-17T23:02:27.465Z,26.27
2019-05-17T23:07:31.711Z,22.42
2019-05-17T23:12:35.966Z,28.45
2019-05-17T23:17:40.220Z,25.82
2019-05-17T23:22:44.523Z,23.75
2019-05-17T23:27:48.762Z,24.27
2019-05-17T23:32:53.022Z,26.50
2019-05-17T23:37:57.270Z,25.60
2019-05-17T23:43:01.569Z,26.23
2019-05-17T23:48:05.813Z,27.70
2019-05-17T23:53:10.037Z,28.62
2019-05-17T23:58:14.277Z,27.75
